DLH573 FAOR-EDDF
Flight info
| Callsign | DLH573 |
|---|---|
| Flight time | N/A |
| Altitude | 33000 |
| Route | LIV1C VASUR UQ41 EVIPI DCT ETMIT UM214 OKLAP/N0513F320 UM214 DUGBA/N0510F340 UM214 RAPOL UA607 SOLVI/N0504F360 UA607 FL UT237 INISA UM998 TIDOU/N0495F380 UM998 BOD UR978 CSO UA605 CIRTA DCT ETOIL DCT OMEDA DCT TORTU DCT ERTEV DCT ABESI DCT LADOL T163 EMPAX EMPAX5B |
| Aircraft | B744/H-SDE3FGHIM1M2RWXY/LB1 |
Departure
| Time | N/A |
|---|---|
| Airport | O.R. Tambo International Airport (FAOR) |
Arrival
| Time | 2026-05-03 21:49 |
|---|---|
| Airport | Frankfurt Main Airport (EDDF) |
| Time | Latitude | Longitude | Altitude | Speed | Heading |
|---|---|---|---|---|---|
| 2026-05-03 20:58 | 44.76770 | 8.99524 | 38137 ft | 486 kts | 356° |
| 2026-05-03 20:58 | 44.79984 | 8.99631 | 38133 ft | 486 kts | 356° |
| 2026-05-03 20:59 | 44.86726 | 8.99856 | 38146 ft | 486 kts | 356° |
| 2026-05-03 20:59 | 44.93513 | 9.00083 | 38138 ft | 486 kts | 356° |
| 2026-05-03 21:00 | 44.97993 | 9.00234 | 38112 ft | 487 kts | 356° |
| 2026-05-03 21:00 | 45.07026 | 9.00537 | 38107 ft | 487 kts | 356° |
| 2026-05-03 21:01 | 45.13815 | 9.00766 | 38108 ft | 487 kts | 357° |
| 2026-05-03 21:01 | 45.20588 | 9.00995 | 38107 ft | 487 kts | 357° |
| 2026-05-03 21:02 | 45.26251 | 9.01186 | 38109 ft | 488 kts | 357° |
| 2026-05-03 21:02 | 45.34135 | 9.01454 | 38110 ft | 488 kts | 357° |
| 2026-05-03 21:03 | 45.40920 | 9.01685 | 38110 ft | 487 kts | 357° |
| 2026-05-03 21:03 | 45.46582 | 9.01879 | 38111 ft | 487 kts | 357° |
| 2026-05-03 21:04 | 45.54472 | 9.02149 | 38112 ft | 488 kts | 357° |
| 2026-05-03 21:04 | 45.60173 | 9.02344 | 38112 ft | 488 kts | 357° |
| 2026-05-03 21:05 | 45.66929 | 9.02576 | 38117 ft | 488 kts | 357° |
| 2026-05-03 21:05 | 45.73723 | 9.02810 | 38123 ft | 488 kts | 357° |
| 2026-05-03 21:06 | 45.80515 | 9.03044 | 38128 ft | 488 kts | 357° |
| 2026-05-03 21:06 | 45.87266 | 9.03277 | 38135 ft | 488 kts | 357° |
| 2026-05-03 21:07 | 45.94052 | 9.03512 | 38139 ft | 488 kts | 357° |
| 2026-05-03 21:07 | 46.00865 | 9.03749 | 38140 ft | 489 kts | 358° |
| 2026-05-03 21:08 | 46.07653 | 9.03986 | 38137 ft | 491 kts | 358° |
| 2026-05-03 21:08 | 46.14506 | 9.04226 | 38126 ft | 491 kts | 358° |
| 2026-05-03 21:09 | 46.21252 | 9.04177 | 38115 ft | 490 kts | 355° |
| 2026-05-03 21:09 | 46.28165 | 9.03805 | 38115 ft | 490 kts | 355° |
| 2026-05-03 21:10 | 46.34944 | 9.03477 | 38118 ft | 490 kts | 355° |
| 2026-05-03 21:10 | 46.41764 | 9.03169 | 38121 ft | 490 kts | 355° |
| 2026-05-03 21:11 | 46.48596 | 9.02867 | 38124 ft | 490 kts | 355° |
| 2026-05-03 21:11 | 46.55409 | 9.02571 | 38123 ft | 491 kts | 355° |
| 2026-05-03 21:12 | 46.62220 | 9.02275 | 38120 ft | 491 kts | 355° |
| 2026-05-03 21:12 | 46.69057 | 9.01977 | 38117 ft | 491 kts | 355° |
| 2026-05-03 21:13 | 46.75897 | 9.01677 | 38114 ft | 491 kts | 355° |
| 2026-05-03 21:13 | 46.82741 | 9.01376 | 38109 ft | 492 kts | 355° |
| 2026-05-03 21:14 | 46.89579 | 9.01075 | 38107 ft | 492 kts | 355° |
| 2026-05-03 21:14 | 46.96405 | 9.00774 | 38104 ft | 492 kts | 355° |
| 2026-05-03 21:15 | 47.03256 | 9.00471 | 38091 ft | 493 kts | 355° |
| 2026-05-03 21:15 | 47.10094 | 9.00167 | 38088 ft | 493 kts | 355° |
| 2026-05-03 21:16 | 47.16951 | 8.99862 | 38085 ft | 493 kts | 355° |
| 2026-05-03 21:16 | 47.23819 | 8.99555 | 38083 ft | 494 kts | 355° |
| 2026-05-03 21:17 | 47.29579 | 8.99298 | 38082 ft | 494 kts | 355° |
| 2026-05-03 21:17 | 47.37578 | 8.98939 | 38081 ft | 494 kts | 355° |
| 2026-05-03 21:18 | 47.44431 | 8.98631 | 38081 ft | 495 kts | 355° |
| 2026-05-03 21:18 | 47.51325 | 8.98321 | 38073 ft | 495 kts | 355° |
| 2026-05-03 21:19 | 47.58214 | 8.98008 | 38065 ft | 495 kts | 355° |
| 2026-05-03 21:19 | 47.65105 | 8.97697 | 38064 ft | 495 kts | 355° |
| 2026-05-03 21:20 | 47.72016 | 8.97383 | 38062 ft | 496 kts | 355° |
| 2026-05-03 21:20 | 47.78874 | 8.97070 | 38060 ft | 496 kts | 355° |
| 2026-05-03 21:21 | 47.85775 | 8.96756 | 38057 ft | 496 kts | 355° |
| 2026-05-03 21:21 | 47.92686 | 8.96441 | 38054 ft | 496 kts | 355° |
| 2026-05-03 21:22 | 47.99592 | 8.96123 | 38053 ft | 496 kts | 355° |
| 2026-05-03 21:22 | 48.06512 | 8.95803 | 38050 ft | 498 kts | 355° |
| 2026-05-03 21:23 | 48.13454 | 8.95482 | 38046 ft | 499 kts | 355° |
| 2026-05-03 21:23 | 48.20407 | 8.95741 | 38043 ft | 501 kts | 2° |
| 2026-05-03 21:24 | 48.27355 | 8.96898 | 38039 ft | 502 kts | 4° |
| 2026-05-03 21:24 | 48.34266 | 8.97992 | 38035 ft | 502 kts | 3° |
| 2026-05-03 21:25 | 48.37737 | 8.98523 | 37919 ft | 502 kts | 3° |
| 2026-05-03 21:25 | 48.41217 | 8.99054 | 37381 ft | 500 kts | 3° |
| 2026-05-03 21:25 | 48.44691 | 8.99584 | 36398 ft | 503 kts | 3° |
| 2026-05-03 21:25 | 48.48185 | 9.00116 | 35517 ft | 504 kts | 3° |
| 2026-05-03 21:26 | 48.51624 | 9.00640 | 34697 ft | 502 kts | 3° |
| 2026-05-03 21:26 | 48.55117 | 9.01175 | 33868 ft | 501 kts | 3° |
| 2026-05-03 21:26 | 48.58592 | 9.01708 | 33038 ft | 500 kts | 3° |
| 2026-05-03 21:26 | 48.61978 | 9.02227 | 32213 ft | 499 kts | 3° |
| 2026-05-03 21:27 | 48.65456 | 9.02886 | 31376 ft | 499 kts | 6° |
| 2026-05-03 21:27 | 48.68888 | 9.03720 | 30584 ft | 497 kts | 7° |
| 2026-05-03 21:27 | 48.72301 | 9.04584 | 29792 ft | 495 kts | 7° |
| 2026-05-03 21:27 | 48.75695 | 9.05414 | 29004 ft | 493 kts | 7° |
| 2026-05-03 21:28 | 48.79079 | 9.06230 | 28217 ft | 491 kts | 7° |
| 2026-05-03 21:28 | 48.82460 | 9.07042 | 27430 ft | 489 kts | 7° |
| 2026-05-03 21:28 | 48.85824 | 9.07848 | 26646 ft | 487 kts | 7° |
| 2026-05-03 21:28 | 48.89157 | 9.08610 | 25871 ft | 484 kts | 5° |
| 2026-05-03 21:29 | 48.92497 | 9.09113 | 25099 ft | 481 kts | 2° |
| 2026-05-03 21:29 | 48.95835 | 9.09522 | 24329 ft | 479 kts | 3° |
| 2026-05-03 21:29 | 48.99142 | 9.09982 | 23566 ft | 476 kts | 3° |
| 2026-05-03 21:29 | 49.02401 | 9.10443 | 22813 ft | 473 kts | 3° |
| 2026-05-03 21:30 | 49.05668 | 9.10906 | 22058 ft | 470 kts | 3° |
| 2026-05-03 21:30 | 49.08936 | 9.11371 | 21303 ft | 467 kts | 3° |
| 2026-05-03 21:30 | 49.12162 | 9.11833 | 20558 ft | 463 kts | 3° |
| 2026-05-03 21:30 | 49.15361 | 9.12292 | 19816 ft | 459 kts | 3° |
| 2026-05-03 21:31 | 49.18488 | 9.12740 | 19090 ft | 456 kts | 3° |
| 2026-05-03 21:31 | 49.21634 | 9.13193 | 18360 ft | 452 kts | 3° |
| 2026-05-03 21:31 | 49.24764 | 9.13640 | 17635 ft | 448 kts | 3° |
| 2026-05-03 21:31 | 49.27849 | 9.14117 | 16916 ft | 445 kts | 5° |
| 2026-05-03 21:32 | 49.30896 | 9.14907 | 16204 ft | 442 kts | 9° |
| 2026-05-03 21:32 | 49.33885 | 9.15941 | 15505 ft | 439 kts | 12° |
| 2026-05-03 21:32 | 49.36849 | 9.17079 | 14806 ft | 436 kts | 12° |
| 2026-05-03 21:32 | 49.39781 | 9.18169 | 14115 ft | 433 kts | 12° |
| 2026-05-03 21:33 | 49.42678 | 9.19215 | 13429 ft | 430 kts | 12° |
| 2026-05-03 21:33 | 49.45581 | 9.20253 | 12737 ft | 425 kts | 12° |
| 2026-05-03 21:33 | 49.48415 | 9.21264 | 12067 ft | 413 kts | 12° |
| 2026-05-03 21:33 | 49.51187 | 9.22252 | 11636 ft | 396 kts | 12° |
| 2026-05-03 21:34 | 49.53804 | 9.23182 | 11491 ft | 373 kts | 12° |
| 2026-05-03 21:34 | 49.56264 | 9.24058 | 11345 ft | 352 kts | 12° |
| 2026-05-03 21:34 | 49.58550 | 9.24875 | 11202 ft | 333 kts | 12° |
| 2026-05-03 21:34 | 49.60768 | 9.25670 | 11052 ft | 318 kts | 12° |
| 2026-05-03 21:35 | 49.62895 | 9.26432 | 11007 ft | 311 kts | 12° |
| 2026-05-03 21:35 | 49.64996 | 9.27185 | 11020 ft | 308 kts | 12° |
| 2026-05-03 21:35 | 49.67084 | 9.27935 | 11017 ft | 306 kts | 12° |
| 2026-05-03 21:35 | 49.69155 | 9.28678 | 11015 ft | 306 kts | 12° |
| 2026-05-03 21:36 | 49.71209 | 9.29413 | 11014 ft | 305 kts | 12° |
| 2026-05-03 21:36 | 49.73305 | 9.30164 | 11012 ft | 305 kts | 12° |
| 2026-05-03 21:36 | 49.75350 | 9.30901 | 10991 ft | 304 kts | 12° |
| 2026-05-03 21:36 | 49.77413 | 9.31646 | 10661 ft | 305 kts | 12° |
| 2026-05-03 21:37 | 49.79492 | 9.32397 | 10286 ft | 303 kts | 12° |
| 2026-05-03 21:37 | 49.81525 | 9.33059 | 9917 ft | 300 kts | 5° |
| 2026-05-03 21:37 | 49.83581 | 9.32844 | 9540 ft | 297 kts | 347° |
| 2026-05-03 21:37 | 49.85601 | 9.32085 | 9064 ft | 300 kts | 343° |
| 2026-05-03 21:38 | 49.87621 | 9.31196 | 8567 ft | 302 kts | 341° |
| 2026-05-03 21:38 | 49.89629 | 9.30276 | 8067 ft | 298 kts | 341° |
| 2026-05-03 21:38 | 49.91583 | 9.29391 | 7652 ft | 291 kts | 341° |
| 2026-05-03 21:38 | 49.93501 | 9.28535 | 7271 ft | 283 kts | 341° |
| 2026-05-03 21:39 | 49.95385 | 9.27711 | 7111 ft | 277 kts | 341° |
| 2026-05-03 21:39 | 49.97229 | 9.26914 | 7043 ft | 275 kts | 341° |
| 2026-05-03 21:39 | 49.99063 | 9.26137 | 7006 ft | 273 kts | 341° |
| 2026-05-03 21:39 | 50.00913 | 9.25345 | 6989 ft | 274 kts | 341° |
| 2026-05-03 21:40 | 50.02720 | 9.24595 | 6669 ft | 272 kts | 341° |
| 2026-05-03 21:40 | 50.04562 | 9.23843 | 6296 ft | 272 kts | 341° |
| 2026-05-03 21:40 | 50.06400 | 9.23111 | 5921 ft | 271 kts | 341° |
| 2026-05-03 21:40 | 50.08106 | 9.22007 | 5553 ft | 261 kts | 320° |
| 2026-05-03 21:41 | 50.09229 | 9.19930 | 5186 ft | 251 kts | 294° |
| 2026-05-03 21:41 | 50.09782 | 9.17378 | 4807 ft | 249 kts | 284° |
| 2026-05-03 21:41 | 50.10207 | 9.14776 | 4484 ft | 246 kts | 282° |
| 2026-05-03 21:41 | 50.10595 | 9.12204 | 4224 ft | 239 kts | 281° |
| 2026-05-03 21:42 | 50.10968 | 9.09742 | 4013 ft | 229 kts | 281° |
| 2026-05-03 21:42 | 50.11330 | 9.07346 | 4000 ft | 227 kts | 281° |
| 2026-05-03 21:42 | 50.11694 | 9.04953 | 4003 ft | 226 kts | 281° |
| 2026-05-03 21:42 | 50.12054 | 9.02623 | 4005 ft | 223 kts | 281° |
| 2026-05-03 21:43 | 50.12420 | 9.00268 | 4018 ft | 223 kts | 281° |
| 2026-05-03 21:43 | 50.12780 | 8.97928 | 4020 ft | 222 kts | 280° |
| 2026-05-03 21:43 | 50.12833 | 8.95645 | 4002 ft | 210 kts | 261° |
| 2026-05-03 21:43 | 50.12447 | 8.93427 | 4000 ft | 207 kts | 251° |
| 2026-05-03 21:44 | 50.11927 | 8.91345 | 3993 ft | 206 kts | 248° |
| 2026-05-03 21:44 | 50.11375 | 8.89291 | 4004 ft | 205 kts | 248° |
| 2026-05-03 21:44 | 50.10858 | 8.87270 | 4005 ft | 200 kts | 249° |
| 2026-05-03 21:44 | 50.10364 | 8.85260 | 3935 ft | 197 kts | 249° |
| 2026-05-03 21:45 | 50.09883 | 8.83268 | 3649 ft | 195 kts | 249° |
| 2026-05-03 21:45 | 50.09417 | 8.81326 | 3379 ft | 185 kts | 250° |
| 2026-05-03 21:45 | 50.08980 | 8.79498 | 3155 ft | 177 kts | 250° |
| 2026-05-03 21:45 | 50.08554 | 8.77713 | 2918 ft | 176 kts | 250° |
| 2026-05-03 21:46 | 50.08133 | 8.75945 | 2684 ft | 175 kts | 250° |
| 2026-05-03 21:46 | 50.07710 | 8.74172 | 2453 ft | 173 kts | 250° |
| 2026-05-03 21:46 | 50.07304 | 8.72469 | 2224 ft | 160 kts | 249° |
| 2026-05-03 21:46 | 50.06933 | 8.70913 | 2000 ft | 146 kts | 249° |
| 2026-05-03 21:47 | 50.06579 | 8.69429 | 1846 ft | 149 kts | 249° |
| 2026-05-03 21:47 | 50.06214 | 8.67899 | 1644 ft | 150 kts | 249° |
| 2026-05-03 21:47 | 50.05856 | 8.66401 | 1420 ft | 146 kts | 249° |
| 2026-05-03 21:47 | 50.05506 | 8.64937 | 1230 ft | 147 kts | 249° |
| 2026-05-03 21:48 | 50.05139 | 8.63454 | 1070 ft | 147 kts | 243° |
| 2026-05-03 21:48 | 50.04782 | 8.61956 | 858 ft | 146 kts | 245° |
| 2026-05-03 21:48 | 50.04443 | 8.60456 | 662 ft | 147 kts | 246° |
| 2026-05-03 21:48 | 50.04084 | 8.58993 | 455 ft | 145 kts | 247° |
| 2026-05-03 21:49 | 50.03743 | 8.57574 | 378 ft | 124 kts | 249° |
| 2026-05-03 21:49 | 50.03514 | 8.56618 | 378 ft | 68 kts | 249° |
| 2026-05-03 21:49 | 50.03431 | 8.56149 | 378 ft | 34 kts | 277° |
| 2026-05-03 21:49 | 50.03453 | 8.55908 | 378 ft | 17 kts | 281° |
| 2026-05-03 21:50 | 50.03468 | 8.55788 | 378 ft | 17 kts | 281° |
| 2026-05-03 21:50 | 50.03488 | 8.55620 | 378 ft | 13 kts | 280° |
| 2026-05-03 21:50 | 50.03493 | 8.55495 | 378 ft | 19 kts | 262° |
| 2026-05-03 21:50 | 50.03458 | 8.55305 | 378 ft | 17 kts | 249° |
| 2026-05-03 21:51 | 50.03417 | 8.55137 | 378 ft | 16 kts | 248° |
| 2026-05-03 21:51 | 50.03394 | 8.55048 | 378 ft | 10 kts | 254° |
| 2026-05-03 21:51 | 50.03416 | 8.54909 | 378 ft | 11 kts | 305° |
| 2026-05-03 21:51 | 50.03500 | 8.54818 | 378 ft | 22 kts | 339° |
| 2026-05-03 21:52 | 50.03633 | 8.54744 | 378 ft | 18 kts | 340° |
| 2026-05-03 21:52 | 50.03721 | 8.54706 | 378 ft | 11 kts | 7° |
| 2026-05-03 21:52 | 50.03781 | 8.54826 | 378 ft | 23 kts | 65° |
| 2026-05-03 21:52 | 50.03830 | 8.55046 | 378 ft | 20 kts | 69° |
| 2026-05-03 21:53 | 50.03879 | 8.55240 | 378 ft | 20 kts | 68° |
| 2026-05-03 21:53 | 50.03928 | 8.55435 | 378 ft | 22 kts | 72° |
| 2026-05-03 21:53 | 50.03982 | 8.55684 | 378 ft | 24 kts | 70° |
| 2026-05-03 21:53 | 50.04040 | 8.55918 | 378 ft | 22 kts | 70° |
| 2026-05-03 21:54 | 50.04085 | 8.56084 | 378 ft | 15 kts | 39° |
| 2026-05-03 21:54 | 50.04216 | 8.56042 | 378 ft | 24 kts | 339° |
| 2026-05-03 21:54 | 50.04359 | 8.55925 | 378 ft | 21 kts | 343° |
| 2026-05-03 21:54 | 50.04467 | 8.55931 | 378 ft | 5 kts | 15° |
| 2026-05-03 21:55 | 50.04525 | 8.55958 | 378 ft | 14 kts | 24° |
| 2026-05-03 21:55 | 50.04575 | 8.56072 | 378 ft | 14 kts | 68° |
| 2026-05-03 21:55 | 50.04608 | 8.56209 | 378 ft | 16 kts | 70° |
| 2026-05-03 21:55 | 50.04630 | 8.56294 | 378 ft | 2 kts | 62° |
| 2026-05-03 21:56 | 50.04649 | 8.56314 | 378 ft | 4 kts | 348° |
| 2026-05-03 21:56 | 50.04706 | 8.56285 | 378 ft | 7 kts | 339° |
| 2026-05-03 21:56 | 50.04725 | 8.56274 | 378 ft | 0 kts | 340° |